Senanur Cebi — V7DB8 — position and weather

sailwx.info

Track history (hours):
 
Tides and Currents Weather Stations Pressure Air Temp Water Temp Dewpoint Dewpoint Depression Visibility Wind Speed Wind Dir Waves Ship Positions

Senanur Cebi

Last reported at 2017-Jul-16 23:34 UTC. Time now 2017-Jul-26 16:52 UTC.
Position N 37°50' E 025°41'.
Warning: this ship's position is 9 days out of date.

Length 188 m; draft 9.6 m.

Type: Cargo ship. MMSI: 538007575.

Date/timePositionNaut miles runAvg speedWind from/ knotsBaromVisibWave heightAir tempDewpointWater temp
2017-Jul-16 23:34N 37°50' E 025°41'112.4
2017-Jul-16 23:30N 37°50' E 025°41'612.3
2017-Jul-16 23:00N 37°44' E 025°41'612.0
2017-Jul-16 22:30N 37°38' E 025°40'611.7
2017-Jul-16 22:00N 37°32' E 025°39'611.1
2017-Jul-16 21:30N 37°26' E 025°38'510.3
2017-Jul-16 21:00N 37°22' E 025°34'611.5
2017-Jul-16 20:30N 37°20' E 025°28'611.8
2017-Jul-16 20:00N 37°17' E 025°21'611.5
2017-Jul-16 19:30N 37°15' E 025°15'711.7
2017-Jul-16 18:56N 37°11' E 025°07'511.8
2017-Jul-16 18:30N 37°09' E 025°02'612.1
2017-Jul-16 18:00N 37°08' E 024°54'46811.7
2017-Jul-15 02:07N 36°34' E 015°11'112.1
2017-Jul-15 02:00N 36°34' E 015°09'711.8
2017-Jul-15 01:23N 36°35' E 014°60'1112.4
2017-Jul-15 00:31N 36°37' E 014°47'012.4
2017-Jul-15 00:30N 36°37' E 014°46'613.1
2017-Jul-15 00:00N 36°38' E 014°39'613.1
2017-Jul-14 23:30N 36°40' E 014°31'713.0
2017-Jul-14 23:00N 36°41' E 014°23'612.8
2017-Jul-14 22:30N 36°43' E 014°15'612.6
2017-Jul-14 22:00N 36°44' E 014°07'612.5
2017-Jul-14 21:30N 36°46' E 013°60'612.4
2017-Jul-14 21:00N 36°47' E 013°52'612.6
2017-Jul-14 20:30N 36°48' E 013°44'612.4
2017-Jul-14 20:00N 36°50' E 013°37'612.6
2017-Jul-14 19:30N 36°51' E 013°29'612.6
2017-Jul-14 19:00N 36°52' E 013°22'612.7
2017-Jul-14 18:30N 36°54' E 013°14'612.6
2017-Jul-14 18:00N 36°55' E 013°06'612.5
2017-Jul-14 17:30N 36°57' E 012°59'812.3
2017-Jul-14 16:51N 36°58' E 012°49'812.3
2017-Jul-14 16:09N 37°00' E 012°38'312.2
2017-Jul-14 15:53N 37°01' E 012°34'13012.4
2017-Jul-14 05:21N 37°32' E 009°55'513.5
2017-Jul-14 05:00N 37°31' E 009°50'713.4
2017-Jul-14 04:29N 37°29' E 009°41'713.3
2017-Jul-14 03:59N 37°28' E 009°33'1113.2
2017-Jul-14 03:08N 37°25' E 009°19'313.1
2017-Jul-14 02:53N 37°24' E 009°15'513.0
2017-Jul-14 02:30N 37°23' E 009°09'2113.0
2017-Jul-14 00:54N 37°19' E 008°43'512.9
2017-Jul-14 00:30N 37°18' E 008°37'1212.9
2017-Jul-13 23:36N 37°17' E 008°22'212.9
2017-Jul-13 23:27N 37°16' E 008°20'1412.7
2017-Jul-13 22:23N 37°16' E 008°03'512.5
2017-Jul-13 22:00N 37°17' E 007°57'6012.7
2017-Jul-13 17:20N 37°14' E 006°42'813.2
2017-Jul-13 16:45N 37°14' E 006°33'313.5
2017-Jul-13 16:30N 37°13' E 006°28'1713.3
2017-Jul-13 15:12N 37°12' E 006°07'313.2
2017-Jul-13 15:00N 37°12' E 006°03'613.0
2017-Jul-13 14:30N 37°11' E 005°55'612.6
2017-Jul-13 14:00N 37°11' E 005°47'612.4
2017-Jul-13 13:30N 37°11' E 005°40'612.3
2017-Jul-13 13:00N 37°11' E 005°32'612.3
2017-Jul-13 12:30N 37°10' E 005°24'712.5
2017-Jul-13 11:57N 37°10' E 005°16'612.7
2017-Jul-13 11:30N 37°09' E 005°08'613.1
2017-Jul-13 11:00N 37°09' E 005°00'713.3
2017-Jul-13 10:30N 37°08' E 004°52'713.5
2017-Jul-13 09:59N 37°08' E 004°43'713.6
2017-Jul-13 09:30N 37°07' E 004°35'1113.2
2017-Jul-13 08:42N 37°06' E 004°22'313.0
2017-Jul-13 08:30N 37°06' E 004°19'713.3
2017-Jul-13 08:00N 37°05' E 004°10'713.4
2017-Jul-13 07:30N 37°05' E 004°02'713.3
2017-Jul-13 07:00N 37°04' E 003°54'712.8
2017-Jul-13 06:29N 37°04' E 003°45'612.7
2017-Jul-13 06:00N 37°03' E 003°38'812.7
2017-Jul-13 05:21N 37°03' E 003°27'512.9
2017-Jul-13 05:00N 37°02' E 003°22'713.0
2017-Jul-13 04:30N 37°02' E 003°14'613.1
2017-Jul-13 04:00N 37°01' E 003°05'713.2
2017-Jul-13 03:30N 37°01' E 002°57'713.1
2017-Jul-13 03:00N 37°01' E 002°49'612.3
2017-Jul-13 02:30N 36°59' E 002°42'612.1
2017-Jul-13 02:00N 36°56' E 002°35'612.7
2017-Jul-13 01:30N 36°55' E 002°27'612.8
2017-Jul-13 01:00N 36°54' E 002°19'612.7
2017-Jul-13 00:30N 36°52' E 002°12'510.8
2017-Jul-13 00:00N 36°53' E 002°05'5 9.6
2017-Jul-12 23:30N 36°50' E 002°00'612.4
2017-Jul-12 23:00N 36°48' E 001°52'713.2
2017-Jul-12 22:30N 36°47' E 001°44'713.2
2017-Jul-12 22:00N 36°46' E 001°36'612.8
2017-Jul-12 21:30N 36°44' E 001°28'713.1
2017-Jul-12 21:00N 36°43' E 001°20'613.0
2017-Jul-12 20:30N 36°42' E 001°12'612.8
2017-Jul-12 20:00N 36°41' E 001°05'713.2
2017-Jul-12 19:30N 36°40' E 000°56'713.3
2017-Jul-12 19:00N 36°39' E 000°48'713.3
2017-Jul-12 18:30N 36°38' E 000°40'713.2
2017-Jul-12 18:00N 36°37' E 000°32'713.2
2017-Jul-12 17:30N 36°36' E 000°24'713.2
2017-Jul-12 17:00N 36°35' E 000°16'713.1
2017-Jul-12 16:30N 36°34' E 000°07'613.0
2017-Jul-12 16:00N 36°33' W 000°00'713.0
2017-Jul-12 15:30N 36°32' W 000°08'713.0
2017-Jul-12 15:00N 36°31' W 000°16'1313.0
2017-Jul-12 14:00N 36°29' W 000°33'612.9
2017-Jul-12 13:30N 36°28' W 000°40'713.0
2017-Jul-12 13:00N 36°27' W 000°48'1012.9
2017-Jul-12 12:13N 36°25' W 001°01'713.3
2017-Jul-12 11:42N 36°24' W 001°09'1413.4
2017-Jul-12 10:38N 36°22' W 001°27'913.6
2017-Jul-12 09:57N 36°21' W 001°38'1014.0
2017-Jul-12 09:15N 36°19' W 001°50'16413.5
2017-Jul-11 21:09N 36°01' W 005°11'213.6
2017-Jul-11 21:00N 36°01' W 005°14'713.1
2017-Jul-11 20:30N 36°04' W 005°21'1 2.1
2017-Jul-11 19:47N 36°04' W 005°23'1 3.6
2017-Jul-11 19:30N 36°03' W 005°23'4 9.0
2017-Jul-11 19:00N 35°59' W 005°25'611.2
2017-Jul-11 18:30N 35°57' W 005°32'8213.4
2017-Jul-11 12:25N 36°07' W 007°12'813.3
2017-Jul-11 11:50N 36°09' W 007°21'413.4
2017-Jul-11 11:30N 36°10' W 007°26'713.6
2017-Jul-11 11:00N 36°12' W 007°34'713.7
2017-Jul-11 10:31N 36°14' W 007°43'814.0
2017-Jul-11 09:56N 36°16' W 007°52'614.2
2017-Jul-11 09:30N 36°17' W 007°59'714.0
2017-Jul-11 09:00N 36°19' W 008°08'713.7
2017-Jul-11 08:30N 36°21' W 008°16'713.7
2017-Jul-11 08:00N 36°22' W 008°24'713.5
2017-Jul-11 07:30N 36°24' W 008°32'713.1
2017-Jul-11 06:58N 36°26' W 008°41'1412.8
2017-Jul-11 05:55N 36°30' W 008°57'512.6
2017-Jul-11 05:30N 36°31' W 009°03'612.5
2017-Jul-11 05:00N 36°32' W 009°11'1811.9
2017-Jul-11 03:31N 36°43' W 009°28'012.8
2017-Jul-11 03:29N 36°43' W 009°29'1712.3
2017-Jul-11 02:09N 36°59' W 009°37'213.0
2017-Jul-11 01:59N 37°01' W 009°37'713.1
2017-Jul-11 01:29N 37°07' W 009°39'613.3
2017-Jul-11 01:00N 37°14' W 009°41'713.3
2017-Jul-11 00:29N 37°20' W 009°43'613.2
2017-Jul-11 00:00N 37°26' W 009°45'713.4
2017-Jul-10 23:30N 37°33' W 009°47'713.3
2017-Jul-10 23:00N 37°39' W 009°48'813.4
2017-Jul-10 22:24N 37°47' W 009°51'513.6
2017-Jul-10 22:00N 37°53' W 009°52'714.0
2017-Jul-10 21:31N 37°59' W 009°54'713.7
2017-Jul-10 21:01N 38°06' W 009°56'713.6
2017-Jul-10 20:31N 38°13' W 009°58'713.5
2017-Jul-10 20:00N 38°19' W 009°60'713.5
2017-Jul-10 19:30N 38°26' W 010°02'713.3
2017-Jul-10 19:00N 38°32' W 010°03'713.2
2017-Jul-10 18:30N 38°39' W 010°05'713.3
2017-Jul-10 18:00N 38°45' W 010°06'713.6
2017-Jul-10 17:30N 38°52' W 010°06'713.7
2017-Jul-10 17:00N 38°59' W 010°06'713.4
2017-Jul-10 16:30N 39°06' W 010°06'713.4
2017-Jul-10 16:00N 39°12' W 010°06'713.2
2017-Jul-10 15:30N 39°19' W 010°06'55012.6
2017-Jul-08 19:58N 48°06' W 006°26'5613.1
2017-Jul-08 15:42N 48°55' W 005°46'611.6
2017-Jul-08 15:09N 48°58' W 005°38'211.6
2017-Jul-08 14:58N 48°59' W 005°35'1111.6
2017-Jul-08 14:00N 49°05' W 005°20'711.9
2017-Jul-08 13:27N 49°09' W 005°12'1012.5
2017-Jul-08 12:37N 49°14' W 004°58'513.0
2017-Jul-08 12:14N 49°16' W 004°51'1213.6
2017-Jul-08 11:23N 49°22' W 004°36'713.9
2017-Jul-08 10:51N 49°26' W 004°26'1313.9
2017-Jul-08 09:54N 49°32' W 004°09'2913.3
2017-Jul-08 07:43N 49°47' W 003°30'312.3
2017-Jul-08 07:30N 49°48' W 003°26'611.9
2017-Jul-08 07:00N 49°51' W 003°18'611.6
2017-Jul-08 06:30N 49°54' W 003°10'611.6
2017-Jul-08 06:00N 49°57' W 003°02'611.8
2017-Jul-08 05:30N 49°59' W 002°54'611.9
2017-Jul-08 05:00N 50°01' W 002°45'612.3
2017-Jul-08 04:30N 50°03' W 002°36'8714.3
2017-Jul-07 22:24N 50°25' W 000°24'512.3
2017-Jul-07 22:00N 50°26' W 000°17'611.5
2017-Jul-07 21:30N 50°28' W 000°08'510.9
2017-Jul-07 21:00N 50°29' E 000°00'510.6
2017-Jul-07 20:30N 50°31' E 000°08'510.4
2017-Jul-07 20:00N 50°32' E 000°16'610.7
2017-Jul-07 19:26N 50°33' E 000°26'511.1
2017-Jul-07 19:00N 50°35' E 000°33'611.7
2017-Jul-07 18:28N 50°38' E 000°41'712.5
2017-Jul-07 17:57N 50°41' E 000°50'613.2
2017-Jul-07 17:30N 50°45' E 000°57'713.6
2017-Jul-07 17:00N 50°49' E 001°06'713.7
2017-Jul-07 16:30N 50°53' E 001°14'714.0
2017-Jul-07 16:00N 50°58' E 001°22'713.3
2017-Jul-07 15:30N 51°03' E 001°29'612.3
2017-Jul-07 15:00N 51°07' E 001°36'1212.0
2017-Jul-07 14:00N 51°17' E 001°49'611.4
2017-Jul-07 13:30N 51°21' E 001°53'611.1
2017-Jul-07 13:00N 51°26' E 001°58'611.2
2017-Jul-07 12:30N 51°31' E 002°03'611.3
2017-Jul-07 11:56N 51°36' E 002°10'711.5
2017-Jul-07 11:22N 51°41' E 002°16'611.8
2017-Jul-07 10:54N 51°45' E 002°22'512.4
2017-Jul-07 10:30N 51°49' E 002°27'612.9
2017-Jul-07 10:00N 51°54' E 002°32'713.6
2017-Jul-07 09:29N 52°01' E 002°35'714.1
2017-Jul-07 08:59N 52°08' E 002°37'7713.6
2017-Jul-07 03:21N 53°19' E 003°28'512.2
2017-Jul-07 02:56N 53°24' E 003°30'  
Track history (hours):
 
Tides and Currents Weather Stations Pressure Air Temp Water Temp Dewpoint Dewpoint Depression Visibility Wind Speed Wind Dir Waves Ship Positions

Senanur Cebi

Last reported at 2017-Jul-16 23:34 UTC. Time now 2017-Jul-26 16:52 UTC.
Position N 37°50' E 025°41'.
Warning: this ship's position is 9 days out of date.

Length 188 m; draft 9.6 m.

Type: Cargo ship. MMSI: 538007575.

Date/timePositionNaut miles runAvg speedWind from/ knotsBaromVisibWave heightAir tempDewpointWater temp
2017-Jul-16 23:34N 37°50' E 025°41'112.4
2017-Jul-16 23:30N 37°50' E 025°41'612.3
2017-Jul-16 23:00N 37°44' E 025°41'612.0
2017-Jul-16 22:30N 37°38' E 025°40'611.7
2017-Jul-16 22:00N 37°32' E 025°39'611.1
2017-Jul-16 21:30N 37°26' E 025°38'510.3
2017-Jul-16 21:00N 37°22' E 025°34'611.5
2017-Jul-16 20:30N 37°20' E 025°28'611.8
2017-Jul-16 20:00N 37°17' E 025°21'611.5
2017-Jul-16 19:30N 37°15' E 025°15'711.7
2017-Jul-16 18:56N 37°11' E 025°07'511.8
2017-Jul-16 18:30N 37°09' E 025°02'612.1
2017-Jul-16 18:00N 37°08' E 024°54'46811.7
2017-Jul-15 02:07N 36°34' E 015°11'112.1
2017-Jul-15 02:00N 36°34' E 015°09'711.8
2017-Jul-15 01:23N 36°35' E 014°60'1112.4
2017-Jul-15 00:31N 36°37' E 014°47'012.4
2017-Jul-15 00:30N 36°37' E 014°46'613.1
2017-Jul-15 00:00N 36°38' E 014°39'613.1
2017-Jul-14 23:30N 36°40' E 014°31'713.0
2017-Jul-14 23:00N 36°41' E 014°23'612.8
2017-Jul-14 22:30N 36°43' E 014°15'612.6
2017-Jul-14 22:00N 36°44' E 014°07'612.5
2017-Jul-14 21:30N 36°46' E 013°60'612.4
2017-Jul-14 21:00N 36°47' E 013°52'612.6
2017-Jul-14 20:30N 36°48' E 013°44'612.4
2017-Jul-14 20:00N 36°50' E 013°37'612.6
2017-Jul-14 19:30N 36°51' E 013°29'612.6
2017-Jul-14 19:00N 36°52' E 013°22'612.7
2017-Jul-14 18:30N 36°54' E 013°14'612.6
2017-Jul-14 18:00N 36°55' E 013°06'612.5
2017-Jul-14 17:30N 36°57' E 012°59'812.3
2017-Jul-14 16:51N 36°58' E 012°49'812.3
2017-Jul-14 16:09N 37°00' E 012°38'312.2
2017-Jul-14 15:53N 37°01' E 012°34'13012.4
2017-Jul-14 05:21N 37°32' E 009°55'513.5
2017-Jul-14 05:00N 37°31' E 009°50'713.4
2017-Jul-14 04:29N 37°29' E 009°41'713.3
2017-Jul-14 03:59N 37°28' E 009°33'1113.2
2017-Jul-14 03:08N 37°25' E 009°19'313.1
2017-Jul-14 02:53N 37°24' E 009°15'513.0
2017-Jul-14 02:30N 37°23' E 009°09'2113.0
2017-Jul-14 00:54N 37°19' E 008°43'512.9
2017-Jul-14 00:30N 37°18' E 008°37'1212.9
2017-Jul-13 23:36N 37°17' E 008°22'212.9
2017-Jul-13 23:27N 37°16' E 008°20'1412.7
2017-Jul-13 22:23N 37°16' E 008°03'512.5
2017-Jul-13 22:00N 37°17' E 007°57'6012.7
2017-Jul-13 17:20N 37°14' E 006°42'813.2
2017-Jul-13 16:45N 37°14' E 006°33'313.5
2017-Jul-13 16:30N 37°13' E 006°28'1713.3
2017-Jul-13 15:12N 37°12' E 006°07'313.2
2017-Jul-13 15:00N 37°12' E 006°03'613.0
2017-Jul-13 14:30N 37°11' E 005°55'612.6
2017-Jul-13 14:00N 37°11' E 005°47'612.4
2017-Jul-13 13:30N 37°11' E 005°40'612.3
2017-Jul-13 13:00N 37°11' E 005°32'612.3
2017-Jul-13 12:30N 37°10' E 005°24'712.5
2017-Jul-13 11:57N 37°10' E 005°16'612.7
2017-Jul-13 11:30N 37°09' E 005°08'613.1
2017-Jul-13 11:00N 37°09' E 005°00'713.3
2017-Jul-13 10:30N 37°08' E 004°52'713.5
2017-Jul-13 09:59N 37°08' E 004°43'713.6
2017-Jul-13 09:30N 37°07' E 004°35'1113.2
2017-Jul-13 08:42N 37°06' E 004°22'313.0
2017-Jul-13 08:30N 37°06' E 004°19'713.3
2017-Jul-13 08:00N 37°05' E 004°10'713.4
2017-Jul-13 07:30N 37°05' E 004°02'713.3
2017-Jul-13 07:00N 37°04' E 003°54'712.8
2017-Jul-13 06:29N 37°04' E 003°45'612.7
2017-Jul-13 06:00N 37°03' E 003°38'812.7
2017-Jul-13 05:21N 37°03' E 003°27'512.9
2017-Jul-13 05:00N 37°02' E 003°22'713.0
2017-Jul-13 04:30N 37°02' E 003°14'613.1
2017-Jul-13 04:00N 37°01' E 003°05'713.2
2017-Jul-13 03:30N 37°01' E 002°57'713.1
2017-Jul-13 03:00N 37°01' E 002°49'612.3
2017-Jul-13 02:30N 36°59' E 002°42'612.1
2017-Jul-13 02:00N 36°56' E 002°35'612.7
2017-Jul-13 01:30N 36°55' E 002°27'612.8
2017-Jul-13 01:00N 36°54' E 002°19'612.7
2017-Jul-13 00:30N 36°52' E 002°12'510.8
2017-Jul-13 00:00N 36°53' E 002°05'5 9.6
2017-Jul-12 23:30N 36°50' E 002°00'612.4
2017-Jul-12 23:00N 36°48' E 001°52'713.2
2017-Jul-12 22:30N 36°47' E 001°44'713.2
2017-Jul-12 22:00N 36°46' E 001°36'612.8
2017-Jul-12 21:30N 36°44' E 001°28'713.1
2017-Jul-12 21:00N 36°43' E 001°20'613.0
2017-Jul-12 20:30N 36°42' E 001°12'612.8
2017-Jul-12 20:00N 36°41' E 001°05'713.2
2017-Jul-12 19:30N 36°40' E 000°56'713.3
2017-Jul-12 19:00N 36°39' E 000°48'713.3
2017-Jul-12 18:30N 36°38' E 000°40'713.2
2017-Jul-12 18:00N 36°37' E 000°32'713.2
2017-Jul-12 17:30N 36°36' E 000°24'713.2
2017-Jul-12 17:00N 36°35' E 000°16'713.1
2017-Jul-12 16:30N 36°34' E 000°07'613.0
2017-Jul-12 16:00N 36°33' W 000°00'713.0
2017-Jul-12 15:30N 36°32' W 000°08'713.0
2017-Jul-12 15:00N 36°31' W 000°16'1313.0
2017-Jul-12 14:00N 36°29' W 000°33'612.9
2017-Jul-12 13:30N 36°28' W 000°40'713.0
2017-Jul-12 13:00N 36°27' W 000°48'1012.9
2017-Jul-12 12:13N 36°25' W 001°01'713.3
2017-Jul-12 11:42N 36°24' W 001°09'1413.4
2017-Jul-12 10:38N 36°22' W 001°27'913.6
2017-Jul-12 09:57N 36°21' W 001°38'1014.0
2017-Jul-12 09:15N 36°19' W 001°50'16413.5
2017-Jul-11 21:09N 36°01' W 005°11'213.6
2017-Jul-11 21:00N 36°01' W 005°14'713.1
2017-Jul-11 20:30N 36°04' W 005°21'1 2.1
2017-Jul-11 19:47N 36°04' W 005°23'1 3.6
2017-Jul-11 19:30N 36°03' W 005°23'4 9.0
2017-Jul-11 19:00N 35°59' W 005°25'611.2
2017-Jul-11 18:30N 35°57' W 005°32'8213.4
2017-Jul-11 12:25N 36°07' W 007°12'813.3
2017-Jul-11 11:50N 36°09' W 007°21'413.4
2017-Jul-11 11:30N 36°10' W 007°26'713.6
2017-Jul-11 11:00N 36°12' W 007°34'713.7
2017-Jul-11 10:31N 36°14' W 007°43'814.0
2017-Jul-11 09:56N 36°16' W 007°52'614.2
2017-Jul-11 09:30N 36°17' W 007°59'714.0
2017-Jul-11 09:00N 36°19' W 008°08'713.7
2017-Jul-11 08:30N 36°21' W 008°16'713.7
2017-Jul-11 08:00N 36°22' W 008°24'713.5
2017-Jul-11 07:30N 36°24' W 008°32'713.1
2017-Jul-11 06:58N 36°26' W 008°41'1412.8
2017-Jul-11 05:55N 36°30' W 008°57'512.6
2017-Jul-11 05:30N 36°31' W 009°03'612.5
2017-Jul-11 05:00N 36°32' W 009°11'1811.9
2017-Jul-11 03:31N 36°43' W 009°28'012.8
2017-Jul-11 03:29N 36°43' W 009°29'1712.3
2017-Jul-11 02:09N 36°59' W 009°37'213.0
2017-Jul-11 01:59N 37°01' W 009°37'713.1
2017-Jul-11 01:29N 37°07' W 009°39'613.3
2017-Jul-11 01:00N 37°14' W 009°41'713.3
2017-Jul-11 00:29N 37°20' W 009°43'613.2
2017-Jul-11 00:00N 37°26' W 009°45'713.4
2017-Jul-10 23:30N 37°33' W 009°47'713.3
2017-Jul-10 23:00N 37°39' W 009°48'813.4
2017-Jul-10 22:24N 37°47' W 009°51'513.6
2017-Jul-10 22:00N 37°53' W 009°52'714.0
2017-Jul-10 21:31N 37°59' W 009°54'713.7
2017-Jul-10 21:01N 38°06' W 009°56'713.6
2017-Jul-10 20:31N 38°13' W 009°58'713.5
2017-Jul-10 20:00N 38°19' W 009°60'713.5
2017-Jul-10 19:30N 38°26' W 010°02'713.3
2017-Jul-10 19:00N 38°32' W 010°03'713.2
2017-Jul-10 18:30N 38°39' W 010°05'713.3
2017-Jul-10 18:00N 38°45' W 010°06'713.6
2017-Jul-10 17:30N 38°52' W 010°06'713.7
2017-Jul-10 17:00N 38°59' W 010°06'713.4
2017-Jul-10 16:30N 39°06' W 010°06'713.4
2017-Jul-10 16:00N 39°12' W 010°06'713.2
2017-Jul-10 15:30N 39°19' W 010°06'55012.6
2017-Jul-08 19:58N 48°06' W 006°26'5613.1
2017-Jul-08 15:42N 48°55' W 005°46'611.6
2017-Jul-08 15:09N 48°58' W 005°38'211.6
2017-Jul-08 14:58N 48°59' W 005°35'1111.6
2017-Jul-08 14:00N 49°05' W 005°20'711.9
2017-Jul-08 13:27N 49°09' W 005°12'1012.5
2017-Jul-08 12:37N 49°14' W 004°58'513.0
2017-Jul-08 12:14N 49°16' W 004°51'1213.6
2017-Jul-08 11:23N 49°22' W 004°36'713.9
2017-Jul-08 10:51N 49°26' W 004°26'1313.9
2017-Jul-08 09:54N 49°32' W 004°09'2913.3
2017-Jul-08 07:43N 49°47' W 003°30'312.3
2017-Jul-08 07:30N 49°48' W 003°26'611.9
2017-Jul-08 07:00N 49°51' W 003°18'611.6
2017-Jul-08 06:30N 49°54' W 003°10'611.6
2017-Jul-08 06:00N 49°57' W 003°02'611.8
2017-Jul-08 05:30N 49°59' W 002°54'611.9
2017-Jul-08 05:00N 50°01' W 002°45'612.3
2017-Jul-08 04:30N 50°03' W 002°36'8714.3
2017-Jul-07 22:24N 50°25' W 000°24'512.3
2017-Jul-07 22:00N 50°26' W 000°17'611.5
2017-Jul-07 21:30N 50°28' W 000°08'510.9
2017-Jul-07 21:00N 50°29' E 000°00'510.6
2017-Jul-07 20:30N 50°31' E 000°08'510.4
2017-Jul-07 20:00N 50°32' E 000°16'610.7
2017-Jul-07 19:26N 50°33' E 000°26'511.1
2017-Jul-07 19:00N 50°35' E 000°33'611.7
2017-Jul-07 18:28N 50°38' E 000°41'712.5
2017-Jul-07 17:57N 50°41' E 000°50'613.2
2017-Jul-07 17:30N 50°45' E 000°57'713.6
2017-Jul-07 17:00N 50°49' E 001°06'713.7
2017-Jul-07 16:30N 50°53' E 001°14'714.0
2017-Jul-07 16:00N 50°58' E 001°22'713.3
2017-Jul-07 15:30N 51°03' E 001°29'612.3
2017-Jul-07 15:00N 51°07' E 001°36'1212.0
2017-Jul-07 14:00N 51°17' E 001°49'611.4
2017-Jul-07 13:30N 51°21' E 001°53'611.1
2017-Jul-07 13:00N 51°26' E 001°58'611.2
2017-Jul-07 12:30N 51°31' E 002°03'611.3
2017-Jul-07 11:56N 51°36' E 002°10'711.5
2017-Jul-07 11:22N 51°41' E 002°16'611.8
2017-Jul-07 10:54N 51°45' E 002°22'512.4
2017-Jul-07 10:30N 51°49' E 002°27'612.9
2017-Jul-07 10:00N 51°54' E 002°32'713.6
2017-Jul-07 09:29N 52°01' E 002°35'714.1
2017-Jul-07 08:59N 52°08' E 002°37'7713.6
2017-Jul-07 03:21N 53°19' E 003°28'512.2
2017-Jul-07 02:56N 53°24' E 003°30'  

Dump ship's entire track history